Terminal Aerodrome Forecast
Issued by NWS

Home | Current Version | Previous Version | Graphics & Text | Print | Product List | Glossary On
Versions: 1 2 3 4 5 6 7 8 9 10 11 12 13 14 15 16 17 18 19 20 21 22 23 24 25 26 27
000
FTUS43 KLOT 270543
TAFORD
TAF
KORD 270543Z 2706/2812 03007KT P6SM FEW006 OVC030
     FM270700 02004KT 6SM BR FEW006
     FM270900 02004KT 3SM BR SCT005
      TEMPO 2711/2713 1 1/2SM BR
     FM271500 08006KT P6SM SCT150
     FM271900 08010KT P6SM SCT040
     FM280200 10005KT P6SM SCT080 BKN200
     FM280800 08005KT 6SM SHRA OVC030 PROB30 2809/2811 4SM TSRA
      OVC015CB=

USA.gov is the U.S. government's official web portal to all federal, state and local government web resources and services.